Lechlade, United Kingdom
Current Conditions -  °F | °C
As of 10:58 PM on Wednesday 22 Oct 2014 (Local Time) from EGVA Reporting Station
Overcast Overcast  
Wind Chill: 51°   Ceiling: 3100
Heat Index: 51°   Visibility: 6mi
Dew Point: 47°   Wind: 8mph
Humidity: 89%   Direction: 220°SW
Pressure: 30.18"   Gusts: NA
Location:  51.69°N, 1.69°W
Report Text: EGVA 222158Z AUTO 22007KT 9999 OVC031 10/09 A3018 RMK AO2 SLP224 T01030086
Loading
Personal Weather Stations






























Interactive Weather Map
Tropical Storm Tracking
New forecast layout! Learn more

10-Day Weather Forecast

Advertisements
Track Severe Weather on mobile